Ansley, Louisiana
Current Conditions -  °F | °C
As of 4:15 AM on Sunday 25 Jan 2015 (Local Time) from KRSN Reporting Station
Clear Clear  
Wind Chill:   Ceiling: Unl
Heat Index:   Visibility: 10mi
Dew Point:   Wind: 8mph
Humidity: 89%   Direction: 210°SSW
Pressure: 29.97"   Gusts: NA
Location:  32.5075°N, 92.6828°W
Report Text: KRSN 251015Z AUTO 21007KT 10SM CLR 04/03 A2997 RMK AO2 T00440028
Loading
Personal Weather Stations






























Interactive Weather Map New forecast layout! Learn more

10-Day Weather Forecast

Advertisements
Track Severe Weather on mobile